sensor_id;sensor_type;location;lat;lon;timestamp;pressure;altitude;pressure_sealevel;temperature;humidity
41636;BME280;27623;51.966;4.602;2024-03-23T00:56:03;64308.59;;;9.68;100.00
41636;BME280;27623;51.966;4.602;2024-03-23T00:58:30;64243.50;;;9.83;100.00
41636;BME280;27623;51.966;4.602;2024-03-23T01:00:55;64258.63;;;9.73;100.00
41636;BME280;27623;51.966;4.602;2024-03-23T01:03:20;64316.94;;;9.63;100.00
41636;BME280;27623;51.966;4.602;2024-03-23T01:05:46;64217.94;;;9.52;100.00
41636;BME280;27623;51.966;4.602;2024-03-23T01:08:11;64208.47;;;9.62;100.00
41636;BME280;27623;51.966;4.602;2024-03-23T01:10:36;64239.53;;;9.62;100.00
41636;BME280;27623;51.966;4.602;2024-03-23T01:13:04;64236.47;;;9.41;100.00
41636;BME280;27623;51.966;4.602;2024-03-23T01:15:32;64248.81;;;9.43;100.00
41636;BME280;27623;51.966;4.602;2024-03-23T01:17:57;64216.47;;;9.46;100.00
41636;BME280;27623;51.966;4.602;2024-03-23T01:20:23;64220.50;;;9.30;100.00
41636;BME280;27623;51.966;4.602;2024-03-23T01:22:48;64188.31;;;9.36;100.00
41636;BME280;27623;51.966;4.602;2024-03-23T01:25:13;64179.44;;;9.33;100.00
41636;BME280;27623;51.966;4.602;2024-03-23T01:27:38;64240.66;;;9.35;100.00
41636;BME280;27623;51.966;4.602;2024-03-23T01:30:04;64212.84;;;9.38;100.00
41636;BME280;27623;51.966;4.602;2024-03-23T01:32:30;64243.00;;;9.40;100.00
41636;BME280;27623;51.966;4.602;2024-03-23T01:34:55;64236.47;;;9.41;100.00
41636;BME280;27623;51.966;4.602;2024-03-23T01:37:22;64242.81;;;9.37;100.00
41636;BME280;27623;51.966;4.602;2024-03-23T01:39:48;64227.56;;;9.37;100.00
41636;BME280;27623;51.966;4.602;2024-03-23T01:42:16;64189.25;;;9.27;100.00
41636;BME280;27623;51.966;4.602;2024-03-23T01:44:41;64171.81;;;9.33;100.00
41636;BME280;27623;51.966;4.602;2024-03-23T01:47:06;64199.06;;;9.29;100.00
41636;BME280;27623;51.966;4.602;2024-03-23T01:49:33;64240.09;;;9.27;100.00
41636;BME280;27623;51.966;4.602;2024-03-23T01:51:59;64197.25;;;9.25;100.00
41636;BME280;27623;51.966;4.602;2024-03-23T01:54:25;64266.06;;;9.28;100.00
41636;BME280;27623;51.966;4.602;2024-03-23T01:56:50;64196.69;;;9.32;100.00
41636;BME280;27623;51.966;4.602;2024-03-23T01:59:16;64208.69;;;9.29;100.00
41636;BME280;27623;51.966;4.602;2024-03-23T02:01:41;64176.72;;;9.23;100.00
41636;BME280;27623;51.966;4.602;2024-03-23T02:04:06;64251.91;;;9.22;100.00
41636;BME280;27623;51.966;4.602;2024-03-23T02:06:32;64173.28;;;9.24;100.00
41636;BME280;27623;51.966;4.602;2024-03-23T02:08:58;64192.19;;;9.11;100.00
41636;BME280;27623;51.966;4.602;2024-03-23T02:11:23;64177.28;;;9.09;100.00
41636;BME280;27623;51.966;4.602;2024-03-23T02:13:49;64126.63;;;9.12;100.00
41636;BME280;27623;51.966;4.602;2024-03-23T02:16:14;64181.28;;;9.08;100.00
41636;BME280;27623;51.966;4.602;2024-03-23T02:18:39;64185.28;;;9.14;100.00
41636;BME280;27623;51.966;4.602;2024-03-23T02:21:05;64176.75;;;9.09;100.00
41636;BME280;27623;51.966;4.602;2024-03-23T02:23:30;64171.84;;;8.97;100.00
41636;BME280;27623;51.966;4.602;2024-03-23T02:25:55;64137.34;;;8.98;100.00
41636;BME280;27623;51.966;4.602;2024-03-23T02:28:21;64170.22;;;9.03;100.00
41636;BME280;27623;51.966;4.602;2024-03-23T02:30:51;64189.81;;;9.07;100.00
41636;BME280;27623;51.966;4.602;2024-03-23T02:33:16;64148.06;;;8.99;100.00
41636;BME280;27623;51.966;4.602;2024-03-23T02:35:43;64151.88;;;8.95;100.00
41636;BME280;27623;51.966;4.602;2024-03-23T02:38:09;64172.19;;;8.95;100.00
41636;BME280;27623;51.966;4.602;2024-03-23T02:40:34;64184.53;;;8.97;100.00
41636;BME280;27623;51.966;4.602;2024-03-23T02:43:03;64160.25;;;8.84;100.00
41636;BME280;27623;51.966;4.602;2024-03-23T02:45:28;64176.94;;;8.90;100.00
41636;BME280;27623;51.966;4.602;2024-03-23T02:47:53;64133.56;;;8.73;100.00
41636;BME280;27623;51.966;4.602;2024-03-23T02:50:19;64143.72;;;8.80;100.00
41636;BME280;27623;51.966;4.602;2024-03-23T02:52:44;64168.22;;;8.75;100.00
41636;BME280;27623;51.966;4.602;2024-03-23T02:55:10;64165.13;;;8.81;100.00
41636;BME280;27623;51.966;4.602;2024-03-23T02:57:35;64161.69;;;8.83;100.00
41636;BME280;27623;51.966;4.602;2024-03-23T03:00:01;64119.25;;;8.72;100.00
41636;BME280;27623;51.966;4.602;2024-03-23T03:02:26;64129.94;;;8.72;100.00
41636;BME280;27623;51.966;4.602;2024-03-23T03:04:51;64149.34;;;8.74;100.00
41636;BME280;27623;51.966;4.602;2024-03-23T03:07:16;64155.34;;;8.58;100.00
41636;BME280;27623;51.966;4.602;2024-03-23T03:09:42;64153.00;;;8.68;100.00
41636;BME280;27623;51.966;4.602;2024-03-23T03:12:07;64119.25;;;8.57;100.00
41636;BME280;27623;51.966;4.602;2024-03-23T03:14:33;64100.56;;;8.45;100.00
41636;BME280;27623;51.966;4.602;2024-03-23T03:16:59;64139.38;;;8.62;100.00
41636;BME280;27623;51.966;4.602;2024-03-23T03:19:24;64117.25;;;8.72;100.00
41636;BME280;27623;51.966;4.602;2024-03-23T03:21:50;64137.38;;;8.70;100.00
41636;BME280;27623;51.966;4.602;2024-03-23T03:24:16;64100.75;;;8.69;100.00
41636;BME280;27623;51.966;4.602;2024-03-23T03:26:42;64140.47;;;8.63;100.00
41636;BME280;27623;51.966;4.602;2024-03-23T03:29:07;64091.84;;;8.65;100.00
41636;BME280;27623;51.966;4.602;2024-03-23T03:31:35;64121.59;;;8.69;100.00
41636;BME280;27623;51.966;4.602;2024-03-23T03:34:00;64095.28;;;8.71;100.00
41636;BME280;27623;51.966;4.602;2024-03-23T03:36:25;64095.13;;;8.54;100.00
41636;BME280;27623;51.966;4.602;2024-03-23T03:38:51;64117.25;;;8.65;100.00
41636;BME280;27623;51.966;4.602;2024-03-23T03:41:17;64106.91;;;8.70;100.00
41636;BME280;27623;51.966;4.602;2024-03-23T03:43:43;64102.38;;;8.42;100.00
41636;BME280;27623;51.966;4.602;2024-03-23T03:46:10;64117.63;;;8.42;100.00
41636;BME280;27623;51.966;4.602;2024-03-23T03:48:36;64107.44;;;8.35;100.00
41636;BME280;27623;51.966;4.602;2024-03-23T03:51:02;64088.41;;;8.45;100.00
41636;BME280;27623;51.966;4.602;2024-03-23T03:53:27;64078.25;;;8.45;100.00
41636;BME280;27623;51.966;4.602;2024-03-23T03:55:52;64092.78;;;8.35;100.00
41636;BME280;27623;51.966;4.602;2024-03-23T03:58:18;64092.59;;;8.40;100.00
41636;BME280;27623;51.966;4.602;2024-03-23T04:00:45;64123.59;;;8.40;100.00
41636;BME280;27623;51.966;4.602;2024-03-23T04:03:10;64118.88;;;8.31;100.00
41636;BME280;27623;51.966;4.602;2024-03-23T04:05:39;64106.91;;;8.34;100.00
41636;BME280;27623;51.966;4.602;2024-03-23T04:08:06;64087.69;;;8.28;100.00
41636;BME280;27623;51.966;4.602;2024-03-23T04:10:32;64135.38;;;8.35;100.00
41636;BME280;27623;51.966;4.602;2024-03-23T04:12:57;64102.56;;;8.09;100.00
41636;BME280;27623;51.966;4.602;2024-03-23T04:15:23;64051.25;;;8.08;100.00
41636;BME280;27623;51.966;4.602;2024-03-23T04:17:48;64106.00;;;8.21;100.00
41636;BME280;27623;51.966;4.602;2024-03-23T04:20:13;64112.53;;;8.27;100.00
41636;BME280;27623;51.966;4.602;2024-03-23T04:22:42;64136.66;;;8.31;100.00
41636;BME280;27623;51.966;4.602;2024-03-23T04:25:08;64103.09;;;8.23;100.00
41636;BME280;27623;51.966;4.602;2024-03-23T04:27:33;64085.69;;;8.28;100.00
41636;BME280;27623;51.966;4.602;2024-03-23T04:29:58;64103.28;;;8.40;100.00
41636;BME280;27623;51.966;4.602;2024-03-23T04:32:26;64072.81;;;8.33;100.00
41636;BME280;27623;51.966;4.602;2024-03-23T04:34:51;64129.41;;;8.43;100.00
41636;BME280;27623;51.966;4.602;2024-03-23T04:37:17;64094.59;;;8.39;100.00
41636;BME280;27623;51.966;4.602;2024-03-23T04:39:45;64127.97;;;8.44;100.00
41636;BME280;27623;51.966;4.602;2024-03-23T04:42:10;64125.41;;;8.44;100.00
41636;BME280;27623;51.966;4.602;2024-03-23T04:44:37;64115.25;;;8.37;100.00
41636;BME280;27623;51.966;4.602;2024-03-23T04:47:02;64108.00;;;8.35;100.00
41636;BME280;27623;51.966;4.602;2024-03-23T04:49:28;64069.75;;;8.40;100.00
41636;BME280;27623;51.966;4.602;2024-03-23T04:51:55;64079.34;;;8.32;100.00
41636;BME280;27623;51.966;4.602;2024-03-23T04:54:21;64057.41;;;8.31;100.00
41636;BME280;27623;51.966;4.602;2024-03-23T04:56:46;64086.59;;;8.20;100.00
41636;BME280;27623;51.966;4.602;2024-03-23T04:59:11;64093.50;;;8.31;100.00
41636;BME280;27623;51.966;4.602;2024-03-23T05:01:37;64082.78;;;8.23;100.00
41636;BME280;27623;51.966;4.602;2024-03-23T05:04:04;64067.56;;;8.16;100.00
41636;BME280;27623;51.966;4.602;2024-03-23T05:06:30;64092.56;;;8.25;100.00
41636;BME280;27623;51.966;4.602;2024-03-23T05:08:55;64056.13;;;7.99;100.00
41636;BME280;27623;51.966;4.602;2024-03-23T05:11:21;64008.69;;;7.66;100.00
41636;BME280;27623;51.966;4.602;2024-03-23T05:13:46;64042.91;;;7.91;100.00
41636;BME280;27623;51.966;4.602;2024-03-23T05:16:11;64017.38;;;7.88;100.00
41636;BME280;27623;51.966;4.602;2024-03-23T05:18:37;64044.91;;;7.98;100.00
41636;BME280;27623;51.966;4.602;2024-03-23T05:21:02;64064.09;;;8.11;100.00
41636;BME280;27623;51.966;4.602;2024-03-23T05:23:28;64035.81;;;8.13;100.00
41636;BME280;27623;51.966;4.602;2024-03-23T05:25:54;64071.56;;;8.08;100.00
41636;BME280;27623;51.966;4.602;2024-03-23T05:28:20;64072.81;;;8.05;100.00
41636;BME280;27623;51.966;4.602;2024-03-23T05:30:55;64040.75;;;8.10;100.00
41636;BME280;27623;51.966;4.602;2024-03-23T05:33:22;64087.66;;;8.14;100.00
41636;BME280;27623;51.966;4.602;2024-03-23T05:35:56;64088.03;;;8.05;100.00
41636;BME280;27623;51.966;4.602;2024-03-23T05:38:21;64079.34;;;8.11;100.00
41636;BME280;27623;51.966;4.602;2024-03-23T05:40:54;64041.66;;;8.09;100.00
41636;BME280;27623;51.966;4.602;2024-03-23T05:43:20;64044.16;;;8.16;100.00
41636;BME280;27623;51.966;4.602;2024-03-23T05:45:45;64032.41;;;8.07;100.00
41636;BME280;27623;51.966;4.602;2024-03-23T05:48:10;64083.13;;;8.14;100.00
41636;BME280;27623;51.966;4.602;2024-03-23T05:50:36;64055.78;;;8.01;100.00
41636;BME280;27623;51.966;4.602;2024-03-23T05:53:01;64043.84;;;7.89;100.00
41636;BME280;27623;51.966;4.602;2024-03-23T05:55:27;64037.09;;;7.95;100.00
41636;BME280;27623;51.966;4.602;2024-03-23T05:57:52;64022.63;;;8.05;100.00
41636;BME280;27623;51.966;4.602;2024-03-23T06:00:18;64098.00;;;8.02;100.00
41636;BME280;27623;51.966;4.602;2024-03-23T06:02:43;64074.09;;;8.08;100.00
41636;BME280;27623;51.966;4.602;2024-03-23T06:05:11;64038.56;;;8.08;100.00
41636;BME280;27623;51.966;4.602;2024-03-23T06:07:37;64028.41;;;8.01;100.00
41636;BME280;27623;51.966;4.602;2024-03-23T06:10:02;64098.38;;;8.14;100.00
41636;BME280;27623;51.966;4.602;2024-03-23T06:12:28;64092.41;;;8.09;100.00
41636;BME280;27623;51.966;4.602;2024-03-23T06:14:53;64076.25;;;8.17;100.00
41636;BME280;27623;51.966;4.602;2024-03-23T06:17:18;64089.13;;;8.13;100.00
41636;BME280;27623;51.966;4.602;2024-03-23T06:19:46;64084.59;;;8.20;100.00
41636;BME280;27623;51.966;4.602;2024-03-23T06:22:11;64090.59;;;8.26;100.00
41636;BME280;27623;51.966;4.602;2024-03-23T06:24:37;64048.16;;;8.01;100.00
41636;BME280;27623;51.966;4.602;2024-03-23T06:27:02;64003.06;;;7.87;100.00
41636;BME280;27623;51.966;4.602;2024-03-23T06:29:28;64044.72;;;7.95;100.00
41636;BME280;27623;51.966;4.602;2024-03-23T06:31:54;64027.69;;;7.84;100.00
41636;BME280;27623;51.966;4.602;2024-03-23T06:34:20;64033.50;;;8.01;100.00
41636;BME280;27623;51.966;4.602;2024-03-23T06:36:46;64099.81;;;8.20;100.00
41636;BME280;27623;51.966;4.602;2024-03-23T06:39:12;64096.03;;;8.24;100.00
41636;BME280;27623;51.966;4.602;2024-03-23T06:41:41;64057.78;;;8.21;100.00
41636;BME280;27623;51.966;4.602;2024-03-23T06:44:06;64104.91;;;8.27;100.00
41636;BME280;27623;51.966;4.602;2024-03-23T06:46:32;64070.47;;;8.21;100.00
41636;BME280;27623;51.966;4.602;2024-03-23T06:48:57;64054.50;;;8.11;100.00
41636;BME280;27623;51.966;4.602;2024-03-23T06:51:25;64054.50;;;8.11;100.00
41636;BME280;27623;51.966;4.602;2024-03-23T06:53:50;64046.53;;;8.20;100.00
41636;BME280;27623;51.966;4.602;2024-03-23T06:56:16;64059.22;;;8.06;100.00
41636;BME280;27623;51.966;4.602;2024-03-23T06:58:41;64057.41;;;8.16;100.00
41636;BME280;27623;51.966;4.602;2024-03-23T07:01:06;64086.78;;;8.22;100.00
41636;BME280;27623;51.966;4.602;2024-03-23T07:03:32;64115.63;;;8.42;100.00
41636;BME280;27623;51.966;4.602;2024-03-23T07:05:58;64099.47;;;8.44;100.00
41636;BME280;27623;51.966;4.602;2024-03-23T07:08:23;64053.97;;;8.18;100.00
41636;BME280;27623;51.966;4.602;2024-03-23T07:10:49;64084.78;;;8.30;100.00
41636;BME280;27623;51.966;4.602;2024-03-23T07:13:14;64076.28;;;8.39;100.00
41636;BME280;27623;51.966;4.602;2024-03-23T07:15:40;64067.75;;;8.33;100.00
41636;BME280;27623;51.966;4.602;2024-03-23T07:18:05;64129.94;;;8.44;100.00
41636;BME280;27623;51.966;4.602;2024-03-23T07:20:30;64094.03;;;8.46;100.00
41636;BME280;27623;51.966;4.602;2024-03-23T07:22:56;64116.34;;;8.38;100.00
41636;BME280;27623;51.966;4.602;2024-03-23T07:25:22;64105.09;;;8.44;100.00
41636;BME280;27623;51.966;4.602;2024-03-23T07:27:48;64114.00;;;8.48;100.00
41636;BME280;27623;51.966;4.602;2024-03-23T07:30:14;64091.13;;;8.41;100.00
41636;BME280;27623;51.966;4.602;2024-03-23T07:32:39;64103.09;;;8.59;100.00
41636;BME280;27623;51.966;4.602;2024-03-23T07:35:05;64127.94;;;8.66;100.00
41636;BME280;27623;51.966;4.602;2024-03-23T07:37:30;64112.91;;;8.61;100.00
41636;BME280;27623;51.966;4.602;2024-03-23T07:39:56;64131.03;;;8.59;100.00
41636;BME280;27623;51.966;4.602;2024-03-23T07:42:22;64137.75;;;8.68;98.71
41636;BME280;27623;51.966;4.602;2024-03-23T07:44:48;64101.28;;;8.69;100.00
41636;BME280;27623;51.966;4.602;2024-03-23T07:47:14;64104.56;;;8.44;97.75
41636;BME280;27623;51.966;4.602;2024-03-23T07:49:39;64115.97;;;8.54;97.61
41636;BME280;27623;51.966;4.602;2024-03-23T07:52:05;64124.16;;;8.48;98.71
41636;BME280;27623;51.966;4.602;2024-03-23T07:54:30;64139.75;;;8.67;99.22
41636;BME280;27623;51.966;4.602;2024-03-23T07:56:56;64113.41;;;8.76;99.81
41636;BME280;27623;51.966;4.602;2024-03-23T07:59:21;64132.50;;;8.72;98.60
41636;BME280;27623;51.966;4.602;2024-03-23T08:01:46;64138.84;;;8.69;95.42
41636;BME280;27623;51.966;4.602;2024-03-23T08:04:12;64154.97;;;8.81;95.87
41636;BME280;27623;51.966;4.602;2024-03-23T08:06:38;64147.91;;;8.82;95.37
41636;BME280;27623;51.966;4.602;2024-03-23T08:09:03;64103.25;;;8.76;95.98
41636;BME280;27623;51.966;4.602;2024-03-23T08:11:30;64145.91;;;8.75;96.28
41636;BME280;27623;51.966;4.602;2024-03-23T08:13:57;64150.63;;;8.84;96.29
41636;BME280;27623;51.966;4.602;2024-03-23T08:16:23;64120.88;;;8.66;94.97
41636;BME280;27623;51.966;4.602;2024-03-23T08:18:51;64119.97;;;8.53;94.80
41636;BME280;27623;51.966;4.602;2024-03-23T08:21:16;64117.59;;;8.56;94.03
41636;BME280;27623;51.966;4.602;2024-03-23T08:23:41;64108.00;;;8.49;93.07
41636;BME280;27623;51.966;4.602;2024-03-23T08:26:09;64101.63;;;8.74;95.15
41636;BME280;27623;51.966;4.602;2024-03-23T08:28:34;64121.75;;;8.79;92.40
41636;BME280;27623;51.966;4.602;2024-03-23T08:31:10;64128.31;;;8.71;93.69
41636;BME280;27623;51.966;4.602;2024-03-23T08:33:36;64139.91;;;8.77;94.94
41636;BME280;27623;51.966;4.602;2024-03-23T08:36:03;64135.41;;;8.70;93.99
41636;BME280;27623;51.966;4.602;2024-03-23T08:38:29;64098.53;;;8.74;92.50
41636;BME280;27623;51.966;4.602;2024-03-23T08:40:59;64169.69;;;8.81;92.97
41636;BME280;27623;51.966;4.602;2024-03-23T08:43:25;64128.31;;;8.78;93.03
41636;BME280;27623;51.966;4.602;2024-03-23T08:45:51;64143.00;;;8.84;90.56
41636;BME280;27623;51.966;4.602;2024-03-23T08:48:17;64186.75;;;8.92;88.79
41636;BME280;27623;51.966;4.602;2024-03-23T08:50:45;64158.41;;;9.08;88.58
41636;BME280;27623;51.966;4.602;2024-03-23T08:53:11;64158.41;;;9.01;88.26
41636;BME280;27623;51.966;4.602;2024-03-23T08:55:36;64189.44;;;9.23;89.74
41636;BME280;27623;51.966;4.602;2024-03-23T08:58:01;64171.31;;;9.04;92.40
41636;BME280;27623;51.966;4.602;2024-03-23T09:00:27;64174.94;;;9.12;94.89
41636;BME280;27623;51.966;4.602;2024-03-23T09:02:52;64148.59;;;9.06;96.35
41636;BME280;27623;51.966;4.602;2024-03-23T09:05:18;64143.38;;;8.82;92.41
41636;BME280;27623;51.966;4.602;2024-03-23T09:07:44;64117.41;;;8.89;94.29
41636;BME280;27623;51.966;4.602;2024-03-23T09:10:09;64104.38;;;8.70;92.89
41636;BME280;27623;51.966;4.602;2024-03-23T09:12:34;64107.09;;;8.72;92.74
41636;BME280;27623;51.966;4.602;2024-03-23T09:15:00;64108.53;;;8.57;91.82
41636;BME280;27623;51.966;4.602;2024-03-23T09:17:25;64123.91;;;8.95;94.42
41636;BME280;27623;51.966;4.602;2024-03-23T09:19:50;64186.00;;;9.24;91.83
41636;BME280;27623;51.966;4.602;2024-03-23T09:22:16;64223.03;;;9.30;86.33
41636;BME280;27623;51.966;4.602;2024-03-23T09:24:41;64228.84;;;9.48;86.78
41636;BME280;27623;51.966;4.602;2024-03-23T09:27:07;64219.53;;;9.60;84.67
41636;BME280;27623;51.966;4.602;2024-03-23T09:29:34;64201.25;;;9.32;85.43
41636;BME280;27623;51.966;4.602;2024-03-23T09:32:00;64227.34;;;9.63;84.50
41636;BME280;27623;51.966;4.602;2024-03-23T09:34:25;64266.22;;;9.80;82.87
41636;BME280;27623;51.966;4.602;2024-03-23T09:36:51;64238.59;;;9.85;83.57
41636;BME280;27623;51.966;4.602;2024-03-23T09:39:19;64253.13;;;9.82;80.00
41636;BME280;27623;51.966;4.602;2024-03-23T09:41:45;64233.72;;;9.67;77.69
41636;BME280;27623;51.966;4.602;2024-03-23T09:44:11;64270.94;;;9.96;79.62
41636;BME280;27623;51.966;4.602;2024-03-23T09:46:36;64267.47;;;9.98;79.20
41636;BME280;27623;51.966;4.602;2024-03-23T09:49:06;64288.75;;;9.96;76.31
41636;BME280;27623;51.966;4.602;2024-03-23T09:51:38;64261.84;;;9.90;76.05
41636;BME280;27623;51.966;4.602;2024-03-23T09:54:04;64271.31;;;9.94;77.34
41636;BME280;27623;51.966;4.602;2024-03-23T09:56:29;64265.09;;;10.00;76.09
41636;BME280;27623;51.966;4.602;2024-03-23T09:59:01;64276.00;;;10.18;74.55
41636;BME280;27623;51.966;4.602;2024-03-23T10:01:29;64236.59;;;9.93;73.90
41636;BME280;27623;51.966;4.602;2024-03-23T10:03:55;64252.97;;;9.73;74.90
41636;BME280;27623;51.966;4.602;2024-03-23T10:06:21;64228.97;;;9.86;78.92
41636;BME280;27623;51.966;4.602;2024-03-23T10:08:47;64203.97;;;9.34;79.65
41636;BME280;27623;51.966;4.602;2024-03-23T10:11:14;64171.03;;;9.58;81.82
41636;BME280;27623;51.966;4.602;2024-03-23T10:13:42;64210.13;;;9.42;83.27
41636;BME280;27623;51.966;4.602;2024-03-23T10:16:08;64175.09;;;9.21;81.87
41636;BME280;27623;51.966;4.602;2024-03-23T10:18:37;64194.88;;;9.28;81.29
41636;BME280;27623;51.966;4.602;2024-03-23T10:23:32;64188.72;;;9.34;80.72
41636;BME280;27623;51.966;4.602;2024-03-23T10:31:20;64164.38;;;9.28;81.51
41636;BME280;27623;51.966;4.602;2024-03-23T10:33:47;64171.63;;;9.37;82.42
41636;BME280;27623;51.966;4.602;2024-03-23T10:36:13;64240.44;;;9.68;79.59
41636;BME280;27623;51.966;4.602;2024-03-23T10:38:42;64266.22;;;9.87;78.58
41636;BME280;27623;51.966;4.602;2024-03-23T10:41:11;64238.38;;;10.04;75.06
41636;BME280;27623;51.966;4.602;2024-03-23T10:43:37;64339.28;;;10.48;73.70
41636;BME280;27623;51.966;4.602;2024-03-23T10:46:04;64340.91;;;10.57;73.13
41636;BME280;27623;51.966;4.602;2024-03-23T10:48:33;64365.09;;;10.67;69.95
41636;BME280;27623;51.966;4.602;2024-03-23T10:50:58;64366.13;;;10.90;70.89
41636;BME280;27623;51.966;4.602;2024-03-23T10:53:28;64327.44;;;10.47;68.60
41636;BME280;27623;51.966;4.602;2024-03-23T10:55:56;64330.03;;;10.32;69.22
41636;BME280;27623;51.966;4.602;2024-03-23T10:58:31;64244.91;;;10.24;69.90
41636;BME280;27623;51.966;4.602;2024-03-23T11:00:57;64299.28;;;10.16;69.22
41636;BME280;27623;51.966;4.602;2024-03-23T11:05:55;64285.84;;;9.91;70.07
41636;BME280;27623;51.966;4.602;2024-03-23T11:08:53;64331.63;;;10.55;70.20
41636;BME280;27623;51.966;4.602;2024-03-23T11:11:21;64325.19;;;10.80;68.44
41636;BME280;27623;51.966;4.602;2024-03-23T11:13:55;64349.44;;;10.70;65.70
41636;BME280;27623;51.966;4.602;2024-03-23T11:16:28;64357.63;;;10.70;65.27
41636;BME280;27623;51.966;4.602;2024-03-23T11:19:33;64347.59;;;10.80;67.19
41636;BME280;27623;51.966;4.602;2024-03-23T11:22:01;64417.41;;;11.30;66.17
41636;BME280;27623;51.966;4.602;2024-03-23T11:24:27;64406.09;;;11.36;66.23
41636;BME280;27623;51.966;4.602;2024-03-23T11:26:52;64412.53;;;11.19;65.26
41636;BME280;27623;51.966;4.602;2024-03-23T11:29:18;64447.47;;;11.37;62.12
41636;BME280;27623;51.966;4.602;2024-03-23T11:31:51;64449.22;;;11.62;61.41
41636;BME280;27623;51.966;4.602;2024-03-23T11:34:18;64405.19;;;11.38;61.15
41636;BME280;27623;51.966;4.602;2024-03-23T11:36:44;64445.09;;;11.40;59.90
41636;BME280;27623;51.966;4.602;2024-03-23T11:39:13;64386.19;;;10.78;62.11
41636;BME280;27623;51.966;4.602;2024-03-23T11:41:51;64355.03;;;10.91;62.88
41636;BME280;27623;51.966;4.602;2024-03-23T11:44:21;64421.97;;;11.30;64.23
41636;BME280;27623;51.966;4.602;2024-03-23T11:46:48;64384.25;;;11.23;63.73
41636;BME280;27623;51.966;4.602;2024-03-23T11:49:27;64361.56;;;10.97;64.26
41636;BME280;27623;51.966;4.602;2024-03-23T11:51:54;64414.72;;;11.07;63.81
41636;BME280;27623;51.966;4.602;2024-03-23T11:54:24;64424.34;;;11.27;65.61
41636;BME280;27623;51.966;4.602;2024-03-23T11:56:59;64444.13;;;11.55;64.70
41636;BME280;27623;51.966;4.602;2024-03-23T11:59:41;64465.94;;;11.90;64.05
41636;BME280;27623;51.966;4.602;2024-03-23T12:02:08;64460.13;;;11.80;62.21
41636;BME280;27623;51.966;4.602;2024-03-23T12:04:33;64443.34;;;11.81;62.68
41636;BME280;27623;51.966;4.602;2024-03-23T12:07:15;64485.25;;;12.03;63.15
41636;BME280;27623;51.966;4.602;2024-03-23T12:09:41;64433.38;;;11.55;61.39
41636;BME280;27623;51.966;4.602;2024-03-23T12:12:26;64538.28;;;12.24;62.97
41636;BME280;27623;51.966;4.602;2024-03-23T12:15:03;64511.31;;;12.03;60.04
41636;BME280;27623;51.966;4.602;2024-03-23T12:17:29;64559.00;;;12.50;59.08
41636;BME280;27623;51.966;4.602;2024-03-23T12:19:54;64473.94;;;12.02;57.76
41636;BME280;27623;51.966;4.602;2024-03-23T12:22:23;64474.72;;;11.77;58.06
41636;BME280;27623;51.966;4.602;2024-03-23T12:24:49;64457.81;;;11.54;58.86
41636;BME280;27623;51.966;4.602;2024-03-23T12:27:17;64412.97;;;11.55;60.27
41636;BME280;27623;51.966;4.602;2024-03-23T12:29:42;64444.13;;;11.55;59.88
41636;BME280;27623;51.966;4.602;2024-03-23T12:32:12;64438.69;;;11.43;60.90
41636;BME280;27623;51.966;4.602;2024-03-23T12:34:38;64429.66;;;11.16;60.40
41636;BME280;27623;51.966;4.602;2024-03-23T12:37:03;64400.44;;;11.36;62.95
41636;BME280;27623;51.966;4.602;2024-03-23T12:39:29;64498.94;;;12.01;62.26
41636;BME280;27623;51.966;4.602;2024-03-23T12:41:54;64385.69;;;11.29;60.26
41636;BME280;27623;51.966;4.602;2024-03-23T12:44:20;64426.44;;;11.58;57.52
41636;BME280;27623;51.966;4.602;2024-03-23T12:46:46;64442.50;;;11.54;59.38
41636;BME280;27623;51.966;4.602;2024-03-23T12:49:12;64447.44;;;11.44;60.65
41636;BME280;27623;51.966;4.602;2024-03-23T12:51:37;64399.34;;;11.35;61.28
41636;BME280;27623;51.966;4.602;2024-03-23T12:54:03;64486.34;;;11.90;61.22
41636;BME280;27623;51.966;4.602;2024-03-23T12:56:29;64527.66;;;12.33;59.57
41636;BME280;27623;51.966;4.602;2024-03-23T12:58:57;64487.09;;;11.93;59.10
41636;BME280;27623;51.966;4.602;2024-03-23T13:01:23;64444.72;;;11.34;58.76
41636;BME280;27623;51.966;4.602;2024-03-23T13:03:51;64391.03;;;11.11;61.11
41636;BME280;27623;51.966;4.602;2024-03-23T13:06:18;64410.63;;;11.43;61.11
41636;BME280;27623;51.966;4.602;2024-03-23T13:08:47;64430.28;;;11.47;58.98
41636;BME280;27623;51.966;4.602;2024-03-23T13:11:15;64419.88;;;11.59;59.88
41636;BME280;27623;51.966;4.602;2024-03-23T13:13:41;64469.78;;;11.86;59.63
41636;BME280;27623;51.966;4.602;2024-03-23T13:16:07;64548.56;;;12.55;58.46
41636;BME280;27623;51.966;4.602;2024-03-23T13:18:33;64579.06;;;12.59;53.86
41636;BME280;27623;51.966;4.602;2024-03-23T13:20:58;64576.69;;;12.62;54.11
41636;BME280;27623;51.966;4.602;2024-03-23T13:23:24;64642.25;;;13.23;54.68
41636;BME280;27623;51.966;4.602;2024-03-23T13:25:55;64663.16;;;13.52;52.99
41636;BME280;27623;51.966;4.602;2024-03-23T13:28:22;64653.34;;;13.35;52.95
41636;BME280;27623;51.966;4.602;2024-03-23T13:30:54;64664.31;;;13.38;52.08
41636;BME280;27623;51.966;4.602;2024-03-23T13:33:20;64591.28;;;13.11;52.24
41636;BME280;27623;51.966;4.602;2024-03-23T13:35:52;64612.22;;;12.81;52.33
41636;BME280;27623;51.966;4.602;2024-03-23T13:38:20;64543.94;;;12.17;53.84
41636;BME280;27623;51.966;4.602;2024-03-23T13:43:15;64475.94;;;12.01;56.45
41636;BME280;27623;51.966;4.602;2024-03-23T13:45:40;64466.34;;;11.81;56.28
41636;BME280;27623;51.966;4.602;2024-03-23T13:48:06;64484.34;;;11.90;56.39
41636;BME280;27623;51.966;4.602;2024-03-23T13:50:31;64423.31;;;11.64;57.17
41636;BME280;27623;51.966;4.602;2024-03-23T13:52:56;64413.56;;;11.34;58.16
41636;BME280;27623;51.966;4.602;2024-03-23T13:55:22;64377.25;;;10.81;57.62
41636;BME280;27623;51.966;4.602;2024-03-23T13:57:47;64348.88;;;10.62;58.17
41636;BME280;27623;51.966;4.602;2024-03-23T14:00:13;64288.19;;;10.24;59.50
41636;BME280;27623;51.966;4.602;2024-03-23T14:02:38;64261.44;;;10.28;60.52
41636;BME280;27623;51.966;4.602;2024-03-23T14:05:04;64293.28;;;10.24;60.95
41636;BME280;27623;51.966;4.602;2024-03-23T14:07:29;64248.22;;;9.92;60.31